Etusivu
METAR-TAF:

METAR-TAF

Lentoasemat :

Illizi, Algeria

Leveyspiiri: 26-30N, Pituuspiiri: 008-25E, korkeus merenpinnasta: 558 m

Tämänhetkinen sää

Tämä raportti tehtiin 28 minuuttia sitten, kello 21.00 UTC
Tuuli 7 kn idästä/koillisesta
Lämpötila 17°C
Kosteus 27%
Ilmanpaine 1026 hPa
Näkyvyys 10 km tai enemmän
ei pilviä alle 1500 m:ssä eikä cumulonimbus-pilviä

METAR: DAAP 162100Z 07007KT CAVOK 17/M02 Q1026

Aika: 22:28 (21:28 UTC)

Sääennuste

Tämä raportti tehtiin 1 tunti ja 28 minuuttia sitten, kello 20.00 UTC
Ennuste voimassa 16. päivästä klo 21 UTC - 17. päivään klo 06 UTC
Tuuli 8 kn idästä/koillisesta
Näkyvyys 10 km tai enemmän
ei pilviä alle 1500 m:ssä eikä cumulonimbus-pilviä

TAF: DAAP 162000Z 1621/1706 06008KT CAVOK

Säähavainnot ja -ennusteet yli 4000 lentoasemalta (METAR- ja TAF-raportit).

Käytössä olevat sääasemat on merkitty karttaan keltaisilla ja punaisilla pisteillä.

Aseta hiiri pisteen päälle nähdäksesi sääaseman nimen.

Klikkaa sitten nähdäksesi säähavainnot ja -ennusteet.

Kartan vaihtaminen: klikkaa mustalla rastilla varustettuja vihreitä pisteitä, niin voit zoomata sisään; viivalla varustettua vihreää pistettä, niin voit zoomata ulos tai vihreitä nuolia, niin pääset viereisille kartoille.


METAR-TAF: